Dades meteomassalio
Diari Summary for Octubre 17, 2017 Units:  Metric    English   Both
« Previous Day
Next Day »
Diari Semanal Mensual Anual Personalitzat
  Maxima: Minima: Mijana:
Temperatura: -17.8 °C -15.3 °C -9.9 °C
Rosada: -17.8 °C -16.1 °C -12.9 °C
Humitat: Humidity % 45 % 72 %
Velocitat del vent: 0 km/h 0 km/h 10.9 km/h
Racha vent: 0 km/h - -
Vent:- - ESE
Pressio: 0 hPa 34533.8 hPa -
Pluja: 12.7 mm    
Historical Graphs
 
 
Tabular Data for Octubre 17, 2017
Time Temperature Dew Point Pressure Wind Wind Speed Wind Gust Humidity Rainfall Rate (Hourly) solar Conditions
-17.8 °C -17.8 °C 0 hPa Calm     Humidity % 0 mm SolarRadiationWatts/m^2 W/m2 Conditions
00:03 -12.2 °C -14.2 °C 34760.7 hPa Calm     79 % 0 mm 0.0 W/m2 CLR
00:08 -12.2 °C -14.3 °C 34760.7 hPa Calm     78 % 0 mm 0.0 W/m2 CLR
00:13 -12.6 °C -14.4 °C 34760.7 hPa Calm     79 % 0 mm 0.0 W/m2 CLR
00:18 -12.6 °C -14.4 °C 34760.7 hPa Calm     79 % 0 mm 0.0 W/m2 CLR
00:23 -12.8 °C -14.7 °C 34760.7 hPa Calm     80 % 0 mm 0.0 W/m2 CLR
00:28 -12.8 °C -14.6 °C 34760.7 hPa Calm     81 % 0 mm 0.0 W/m2 CLR
00:33 -12.8 °C -14.6 °C 34760.7 hPa Calm     81 % 0 mm 0.0 W/m2 CLR
00:38 -12.8 °C -14.7 °C 34774.2 hPa Calm     80 % 0 mm 0.0 W/m2 CLR
00:43 -12.8 °C -14.6 °C 34760.7 hPa Calm     81 % 0 mm 0.0 W/m2 CLR
00:48 -12.8 °C -14.6 °C 34760.7 hPa Calm     81 % 0 mm 0.0 W/m2 CLR
00:53 -13.2 °C -14.8 °C 34760.7 hPa Calm     82 % 0 mm 0.0 W/m2 CLR
00:58 -12.8 °C -14.3 °C 34760.7 hPa Calm     83 % 0 mm 0.0 W/m2 CLR
01:03 -13.2 °C -14.7 °C 34760.7 hPa Calm     83 % 0 mm 0.0 W/m2 CLR
01:08 -13.2 °C -14.7 °C 34760.7 hPa Calm     83 % 0 mm 0.0 W/m2 CLR
01:13 -13.2 °C -14.6 °C 34760.7 hPa Calm     84 % 0 mm 0.0 W/m2 CLR
01:18 -12.8 °C -14.3 °C 34760.7 hPa Calm     84 % 0 mm 0.0 W/m2 CLR
01:23 -13.2 °C -14.6 °C 34760.7 hPa Calm     84 % 0 mm 0.0 W/m2 CLR
01:28 -13.2 °C -14.6 °C 34760.7 hPa Calm     84 % 0 mm 0.0 W/m2 CLR
01:33 -13.2 °C -14.6 °C 34760.7 hPa Calm     84 % 0 mm 0.0 W/m2 CLR
01:38 -13.4 °C -14.9 °C 34760.7 hPa Calm     84 % 0 mm 0.0 W/m2 CLR
01:43 -13.2 °C -14.6 °C 34760.7 hPa Calm     84 % 0 mm 0.0 W/m2 CLR
01:48 -13.4 °C -14.9 °C 34760.7 hPa Calm     84 % 0 mm 0.0 W/m2 CLR
01:53 -13.4 °C -14.8 °C 34760.7 hPa Calm     85 % 0 mm 0.0 W/m2 CLR
01:58 -13.4 °C -14.7 °C 34760.7 hPa Calm     86 % 0 mm 0.0 W/m2 CLR
02:03 -13.4 °C -14.7 °C 34760.7 hPa Calm     86 % 0 mm 0.0 W/m2 CLR
02:08 -13.8 °C -14.9 °C 34760.7 hPa Calm     87 % 0 mm 0.0 W/m2 CLR
02:13 -13.8 °C -14.9 °C 34760.7 hPa Calm     87 % 0 mm 0.0 W/m2 CLR
02:18 -14.1 °C -15.2 °C 34760.7 hPa Calm     87 % 0 mm 0.0 W/m2 CLR
02:23 -14.1 °C -15.3 °C 34760.7 hPa Calm     86 % 0 mm 0.0 W/m2 CLR
02:28 -14.1 °C -15.2 °C 34760.7 hPa Calm     87 % 0 mm 0.0 W/m2 CLR
02:33 -14.4 °C -15.5 °C 34760.7 hPa Calm     87 % 0 mm 0.0 W/m2 CLR
02:38 -14.1 °C -15.2 °C 34760.7 hPa Calm     87 % 0 mm 0.0 W/m2 CLR
02:43 -14.4 °C -15.5 °C 34760.7 hPa Calm     87 % 0 mm 0.0 W/m2 CLR
02:48 -14.4 °C -15.5 °C 34750.5 hPa Calm     87 % 0 mm 0.0 W/m2 CLR
02:53 -14.4 °C -15.4 °C 34750.5 hPa Calm     88 % 0 mm 0.0 W/m2 CLR
02:58 -14.4 °C -15.5 °C 34750.5 hPa Calm     87 % 0 mm 0.0 W/m2 CLR
03:03 -14.4 °C -15.5 °C 34750.5 hPa Calm     87 % 0 mm 0.0 W/m2 CLR
03:08 -14.7 °C -15.8 °C 34750.5 hPa Calm     87 % 0 mm 0.0 W/m2 CLR
03:13 -14.7 °C -15.7 °C 34750.5 hPa Calm     88 % 0 mm 0.0 W/m2 CLR
03:18 -14.7 °C -15.8 °C 34750.5 hPa Calm     87 % 0 mm 0.0 W/m2 CLR
03:23 -14.7 °C -15.8 °C 34750.5 hPa Calm     87 % 0 mm 0.0 W/m2 CLR
03:28 -14.7 °C -15.8 °C 34750.5 hPa Calm     87 % 0 mm 0.0 W/m2 CLR
03:33 -14.7 °C -15.8 °C 34740.4 hPa Calm     87 % 0 mm 0.0 W/m2 CLR
03:38 -14.7 °C -15.8 °C 34740.4 hPa Calm     87 % 0 mm 0.0 W/m2 CLR
03:43 -14.7 °C -15.8 °C 34740.4 hPa Calm     87 % 0 mm 0.0 W/m2 CLR
03:48 -14.7 °C -15.8 °C 34740.4 hPa Calm     87 % 0 mm 0.0 W/m2 CLR
03:53 -14.7 °C -15.8 °C 34740.4 hPa Calm     87 % 0 mm 0.0 W/m2 CLR
03:58 -14.7 °C -15.8 °C 34740.4 hPa Calm     87 % 0 mm 0.0 W/m2 CLR
04:03 -14.7 °C -15.8 °C 34740.4 hPa Calm     87 % 0 mm 0.0 W/m2 CLR
04:08 -14.7 °C -15.7 °C 34740.4 hPa Calm     88 % 0 mm 0.0 W/m2 CLR
04:13 -14.7 °C -15.7 °C 34740.4 hPa Calm     88 % 0 mm 0.0 W/m2 CLR
04:18 -14.7 °C -15.7 °C 34726.8 hPa Calm     88 % 0 mm 0.0 W/m2 CLR
04:23 -14.7 °C -15.6 °C 34726.8 hPa Calm     89 % 0 mm 0.0 W/m2 CLR
04:28 -14.7 °C -15.7 °C 34726.8 hPa Calm     88 % 0 mm 0.0 W/m2 CLR
04:33 -14.7 °C -15.7 °C 34726.8 hPa Calm     88 % 0 mm 0.0 W/m2 CLR
04:38 -14.7 °C -15.7 °C 34726.8 hPa Calm     88 % 0 mm 0.0 W/m2 CLR
04:43 -14.7 °C -15.6 °C 34726.8 hPa Calm     89 % 0 mm 0.0 W/m2 CLR
04:48 -14.7 °C -15.6 °C 34726.8 hPa Calm     89 % 0 mm 0.0 W/m2 CLR
04:53 -14.7 °C -15.6 °C 34716.7 hPa Calm     89 % 0 mm 0.0 W/m2 CLR
04:58 -14.7 °C -15.6 °C 34716.7 hPa Calm     89 % 0 mm 0.0 W/m2 CLR
05:03 -14.7 °C -15.5 °C 34716.7 hPa Calm     90 % 0 mm 0.0 W/m2 CLR
05:08 -14.7 °C -15.6 °C 34716.7 hPa Calm     89 % 0 mm 0.0 W/m2 CLR
05:16 -14.7 °C -15.6 °C 34716.7 hPa Calm     89 % 0 mm 0.0 W/m2 CLR
05:21 -14.7 °C -15.5 °C 34716.7 hPa Calm     90 % 0 mm 0.0 W/m2 CLR
05:22 -14.7 °C -15.6 °C 34716.7 hPa Calm     89 % 0 mm 0.0 W/m2 CLR
05:26 -14.7 °C -15.6 °C 34716.7 hPa Calm     89 % 0 mm 0.0 W/m2 CLR
05:29 -14.7 °C -15.5 °C 34716.7 hPa Calm     90 % 0 mm 0.0 W/m2 CLR
05:34 -14.7 °C -15.5 °C 34716.7 hPa Calm     90 % 0 mm 0.0 W/m2 CLR
05:39 -14.7 °C -15.5 °C 34716.7 hPa Calm     90 % 0 mm 0.0 W/m2 CLR
05:44 -14.7 °C -15.5 °C 34716.7 hPa Calm     90 % 0 mm 0.0 W/m2 CLR
05:49 -14.7 °C -15.5 °C 34716.7 hPa Calm     90 % 0 mm 0.0 W/m2 CLR
05:54 -14.7 °C -15.5 °C 34716.7 hPa Calm     90 % 0 mm 0.0 W/m2 CLR
05:59 -14.7 °C -15.5 °C 34716.7 hPa Calm     90 % 0 mm 0.0 W/m2 CLR
06:04 -15 °C -15.8 °C 34716.7 hPa Calm     90 % 0 mm 0.0 W/m2 CLR
06:09 -15 °C -15.7 °C 34716.7 hPa Calm     91 % 0 mm 0.0 W/m2 CLR
06:14 -15 °C -15.8 °C 34716.7 hPa Calm     90 % 0 mm 0.0 W/m2 CLR
06:19 -15 °C -15.8 °C 34716.7 hPa Calm     90 % 0 mm 0.0 W/m2 CLR
06:24 -15 °C -15.8 °C 34716.7 hPa Calm     90 % 0 mm 0.0 W/m2 CLR
06:29 -15 °C -15.8 °C 34716.7 hPa Calm     90 % 0 mm 0.0 W/m2 CLR
06:34 -14.7 °C -15.5 °C 34716.7 hPa Calm     90 % 0 mm 0.0 W/m2 CLR
06:39 -14.7 °C -15.5 °C 34716.7 hPa Calm     90 % 0 mm 0.0 W/m2 CLR
06:44 -14.7 °C -15.5 °C 34716.7 hPa Calm     90 % 0 mm 0.0 W/m2 CLR
06:49 -15 °C -15.8 °C 34716.7 hPa Calm     90 % 0 mm 0.0 W/m2 CLR
06:54 -15 °C -15.8 °C 34716.7 hPa Calm     90 % 0 mm 0.0 W/m2 CLR
06:59 -15 °C -15.8 °C 34716.7 hPa Calm     90 % 0 mm 0.0 W/m2 CLR
07:04 -15 °C -15.8 °C 34716.7 hPa Calm     90 % 0 mm 0.0 W/m2 CLR
07:09 -15 °C -15.8 °C 34716.7 hPa Calm     90 % 0 mm 0.0 W/m2 CLR
07:14 -15 °C -15.8 °C 34716.7 hPa Calm     90 % 0 mm 0.0 W/m2 CLR
07:19 -15 °C -15.8 °C 34716.7 hPa Calm     90 % 0 mm 0.0 W/m2 CLR
07:24 -15 °C -15.7 °C 34716.7 hPa Calm     91 % 0 mm 0.0 W/m2 CLR
07:30 -14.7 °C -15.4 °C 34703.1 hPa Calm     91 % 0 mm 0.0 W/m2 CLR
07:35 -14.7 °C -15.5 °C 34716.7 hPa Calm     90 % 0 mm 0.0 W/m2 CLR
07:40 -15 °C -15.8 °C 34716.7 hPa Calm     90 % 0 mm 0.0 W/m2 CLR
07:45 -15 °C -15.8 °C 34716.7 hPa Calm     90 % 0 mm 0.0 W/m2 CLR
07:50 -15 °C -15.8 °C 34716.7 hPa Calm     90 % 0 mm 0.0 W/m2 CLR
07:55 -15 °C -15.7 °C 34703.1 hPa Calm     91 % 0 mm 0.0 W/m2 CLR
08:00 -15 °C -15.7 °C 34716.7 hPa Calm     91 % 0 mm 0.0 W/m2 CLR
08:05 -15.3 °C -16.1 °C 34716.7 hPa Calm     91 % 0 mm 0.0 W/m2 OVC
08:11 -15.3 °C -16.1 °C 34716.7 hPa Calm     91 % 0 mm 0.0 W/m2 OVC
08:15 -15 °C -15.7 °C 34716.7 hPa Calm     91 % 0 mm 5.0 W/m2 OVC
08:20 -15 °C -15.7 °C 34716.7 hPa Calm     91 % 0 mm 9.0 W/m2 BKN
08:26 -15 °C -15.7 °C 34716.7 hPa Calm     91 % 0 mm 11.0 W/m2 BKN
08:31 -15.3 °C -16.1 °C 34716.7 hPa Calm     91 % 0 mm 14.0 W/m2 BKN
08:36 -15 °C -15.7 °C 34716.7 hPa Calm     91 % 0 mm 16.0 W/m2 BKN
08:41 -15 °C -15.7 °C 34716.7 hPa Calm     91 % 0 mm 21.0 W/m2 BKN
08:46 -15 °C -15.7 °C 34726.8 hPa Calm     91 % 0 mm 26.0 W/m2 BKN
08:51 -14.7 °C -15.4 °C 34726.8 hPa Calm     91 % 0 mm 35.0 W/m2 BKN
08:56 -14.7 °C -15.5 °C 34726.8 hPa Calm     90 % 0 mm 44.0 W/m2 BKN
09:01 -15 °C -15.7 °C 34726.8 hPa Calm     91 % 0 mm 62.0 W/m2 SCT
09:06 -15 °C -15.8 °C 34726.8 hPa Calm     90 % 0 mm 74.0 W/m2 FEW
09:11 -15 °C -15.8 °C 34726.8 hPa Calm     90 % 0 mm 84.0 W/m2 FEW
09:16 -14.7 °C -15.5 °C 34726.8 hPa Calm     90 % 0 mm 100.0 W/m2 FEW
09:21 -14.7 °C -15.6 °C 34726.8 hPa Calm     89 % 0 mm 102.0 W/m2 CLR
09:26 -14.4 °C -15.4 °C 34726.8 hPa Calm     88 % 0 mm 134.0 W/m2 CLR
09:31 -14.4 °C -15.5 °C 34726.8 hPa Calm     87 % 0 mm 149.0 W/m2 CLR
09:36 -14.4 °C -15.5 °C 34726.8 hPa Calm     87 % 0 mm 127.0 W/m2 CLR
09:41 -14.1 °C -15.3 °C 34726.8 hPa Calm     86 % 0 mm 183.0 W/m2 CLR
09:46 -14.1 °C -15.3 °C 34726.8 hPa Calm     86 % 0 mm 202.0 W/m2 CLR
09:51 -13.8 °C -15.1 °C 34726.8 hPa Calm     85 % 0 mm 220.0 W/m2 CLR
09:56 -13.4 °C -14.9 °C 34726.8 hPa Calm     83 % 0 mm 237.0 W/m2 CLR
10:01 -13.2 °C -14.8 °C 34740.4 hPa Calm     82 % 0 mm 257.0 W/m2 CLR
10:06 -13.2 °C -14.8 °C 34726.8 hPa Calm     81 % 0 mm 274.0 W/m2 CLR
10:11 -12.8 °C -14.7 °C 34726.8 hPa Calm     80 % 0 mm 287.0 W/m2 CLR
10:16 -12.8 °C -14.9 °C 34726.8 hPa Calm     77 % 0 mm 302.0 W/m2 CLR
10:21 -12.6 °C -14.9 °C 34726.8 hPa Calm     75 % 0 mm 318.0 W/m2 CLR
10:26 -12.6 °C -14.9 °C 34726.8 hPa Calm     74 % 0 mm 332.0 W/m2 CLR
10:31 -12.2 °C -14.7 °C 34726.8 hPa Calm     74 % 0 mm 346.0 W/m2 CLR
10:36 -11.6 °C -14.2 °C 34726.8 hPa Calm     73 % 0 mm 359.0 W/m2 CLR
10:41 -11.3 °C -13.9 °C 34726.8 hPa Calm     73 % 0 mm 373.0 W/m2 CLR
10:46 -11 °C -13.8 °C 34726.8 hPa Calm     71 % 0 mm 387.0 W/m2 CLR
10:51 -11 °C -14.1 °C 34716.7 hPa Calm     69 % 0 mm 397.0 W/m2 CLR
10:56 -10.7 °C -13.7 °C 34716.7 hPa Calm     70 % 0 mm 410.0 W/m2 CLR
11:01 -10.4 °C -13.4 °C 34716.7 hPa Calm     69 % 0 mm 422.0 W/m2 CLR
11:06 -10.1 °C -13.3 °C 34716.7 hPa Calm     68 % 0 mm 438.0 W/m2 CLR
11:11 -9.8 °C -13.1 °C 34716.7 hPa Calm     67 % 0 mm 448.0 W/m2 CLR
11:16 -9.8 °C -13.1 °C 34703.1 hPa Calm     67 % 0 mm 455.0 W/m2 CLR
11:21 -9.4 °C -12.9 °C 34703.1 hPa Calm     66 % 0 mm 469.0 W/m2 CLR
11:26 -9.1 °C -13 °C 34703.1 hPa Calm     63 % 0 mm 476.0 W/m2 CLR
11:31 -8.8 °C -12.9 °C 34703.1 hPa Calm     62 % 0 mm 489.0 W/m2 CLR
11:36 -8.2 °C -12.4 °C 34693 hPa Calm     61 % 0 mm 499.0 W/m2 CLR
11:41 -8.2 °C -12.4 °C 34693 hPa Calm     61 % 0 mm 508.0 W/m2 CLR
11:46 -7.9 °C -12.1 °C 34693 hPa Calm     61 % 0 mm 517.0 W/m2 CLR
11:51 -7.6 °C -12.1 °C 34693 hPa Calm     59 % 0 mm 529.0 W/m2 CLR
11:56 -7.3 °C -11.8 °C 34693 hPa NNW 9 km/h 9 km/h 59 % 0 mm 538.0 W/m2 CLR
12:01 -7.3 °C -11.8 °C 34693 hPa North 9 km/h 9 km/h 59 % 0 mm 545.0 W/m2 CLR
12:06 -7 °C -11.6 °C 34682.8 hPa NNW 9 km/h   59 % 0 mm 554.0 W/m2 CLR
12:11 -7 °C -11.6 °C 34682.8 hPa Calm     59 % 0 mm 563.0 W/m2 CLR
12:17 -6.7 °C -11.4 °C 34682.8 hPa NNW 15 km/h 15 km/h 58 % 0 mm 568.0 W/m2 CLR
12:22 -6.3 °C -10.9 °C 34682.8 hPa NNW 9 km/h 9 km/h 59 % 0 mm 575.0 W/m2 CLR
12:27 -6.3 °C -11.1 °C 34669.3 hPa North 20.8 km/h 20.8 km/h 58 % 0 mm 582.0 W/m2 CLR
12:32 -6.1 °C -10.8 °C 34669.3 hPa NW 11.9 km/h 11.9 km/h 58 % 0 mm 587.0 W/m2 CLR
12:37 -6.1 °C -10.8 °C 34669.3 hPa WNW 15.6 km/h 15.6 km/h 58 % 0 mm 591.0 W/m2 CLR
12:42 -6.1 °C -10.9 °C 34669.3 hPa NNW 9 km/h 9 km/h 57 % 0 mm 596.0 W/m2 CLR
12:47 -5.7 °C -10.7 °C 34669.3 hPa NNW 23.8 km/h 23.8 km/h 57 % 0 mm 601.0 W/m2 CLR
12:52 -5.7 °C -10.8 °C 34669.3 hPa Calm     56 % 0 mm 603.0 W/m2 CLR
12:57 -5.4 °C -10.7 °C 34659.1 hPa NW 9 km/h 9 km/h 55 % 0 mm 610.0 W/m2 CLR
13:02 -5.1 °C -10.4 °C 34659.1 hPa NNW 11.9 km/h   55 % 0 mm 610.0 W/m2 CLR
13:07 -5.4 °C -10.9 °C 34659.1 hPa NW 20.9 km/h 20.9 km/h 54 % 0 mm 621.0 W/m2 CLR
13:12 -5.4 °C -11 °C 34659.1 hPa NNW 26.9 km/h 26.9 km/h 53 % 0 mm 622.0 W/m2 CLR
13:17 -5.1 °C -10.7 °C 34645.6 hPa NW 26.9 km/h 26.9 km/h 53 % 0 mm 624.0 W/m2 CLR
13:22 -5.1 °C -10.9 °C 34645.6 hPa NNW 20.9 km/h 20.9 km/h 52 % 0 mm 624.0 W/m2 CLR
13:27 -4.8 °C -10.6 °C 34645.6 hPa West 11.9 km/h 11.9 km/h 52 % 0 mm 626.0 W/m2 CLR
13:32 -4.8 °C -10.9 °C 34635.4 hPa NNW 23.3 km/h 23.3 km/h 50 % 0 mm 628.0 W/m2 CLR
13:37 -4.5 °C -10.7 °C 34635.4 hPa NNW 23.8 km/h 23.8 km/h 50 % 0 mm 626.0 W/m2 CLR
13:38 -4.5 °C -10.7 °C 34635.4 hPa NW 26.9 km/h 26.9 km/h 50 % 0 mm 626.0 W/m2 CLR
13:43 -4.5 °C -10.8 °C 34635.4 hPa NE 23.8 km/h 23.8 km/h 49 % 0 mm 629.0 W/m2 CLR
13:48 -4.5 °C -10.8 °C 34635.4 hPa North 23.8 km/h 23.8 km/h 49 % 0 mm 628.0 W/m2 CLR
13:53 -4.5 °C -10.8 °C 34625.2 hPa North 26.9 km/h 26.9 km/h 49 % 0 mm 629.0 W/m2 CLR
13:58 -4.2 °C -10.5 °C 34625.2 hPa NE 10.3 km/h 11.1 km/h 49 % 0 mm 631.0 W/m2 CLR
14:03 -4.2 °C -10.7 °C 34625.2 hPa North 23.8 km/h 23.8 km/h 48 % 0 mm 628.0 W/m2 CLR
14:08 -4.2 °C -11.1 °C 34611.7 hPa NE 26.9 km/h 26.9 km/h 46 % 0 mm 629.0 W/m2 CLR
14:13 -4.2 °C -10.9 °C 34611.7 hPa NNE 29.8 km/h 29.8 km/h 47 % 0 mm 628.0 W/m2 CLR
14:18 -4.2 °C -10.9 °C 34611.7 hPa NNE 26.9 km/h 26.9 km/h 47 % 0 mm 622.0 W/m2 CLR
14:23 -4.2 °C -10.7 °C 34601.5 hPa NNE 18.2 km/h 18.2 km/h 48 % 0 mm 615.0 W/m2 CLR
14:28 -4.2 °C -10.7 °C 34601.5 hPa North 11.9 km/h 11.9 km/h 48 % 0 mm 608.0 W/m2 CLR
14:33 -4.2 °C -10.9 °C 34601.5 hPa North 23.3 km/h 23.3 km/h 47 % 0 mm 606.0 W/m2 CLR
14:38 -4.2 °C -10.9 °C 34591.4 hPa North 17.9 km/h 17.9 km/h 47 % 0 mm 601.0 W/m2 CLR
14:43 -3.9 °C -10.6 °C 34591.4 hPa North 20.8 km/h 20.8 km/h 47 % 0 mm 598.0 W/m2 CLR
14:48 -3.9 °C -11 °C 34577.8 hPa ENE 26.9 km/h 26.9 km/h 45 % 0 mm 592.0 W/m2 CLR
14:53 -3.6 °C -10.7 °C 34577.8 hPa NE 29.8 km/h 29.8 km/h 45 % 0 mm 585.0 W/m2 CLR
14:58 -3.6 °C -10.7 °C 34577.8 hPa ENE 29.8 km/h 29.8 km/h 45 % 0 mm 580.0 W/m2 CLR
15:03 -3.6 °C -10.5 °C 34577.8 hPa NE 32.8 km/h 32.8 km/h 46 % 0 mm 578.0 W/m2 CLR
15:08 -3.6 °C -10.5 °C 34567.7 hPa NNE 38.8 km/h 38.8 km/h 46 % 0 mm 571.0 W/m2 CLR
15:13 -3.9 °C -10.6 °C 34567.7 hPa NNE 41.7 km/h 41.7 km/h 47 % 0 mm 552.0 W/m2 CLR
15:18 -3.9 °C -10.6 °C 34567.7 hPa NNE 32.8 km/h 32.8 km/h 47 % 0 mm 519.0 W/m2 CLR
15:23 -3.9 °C -10.4 °C 34554.1 hPa NNE 29.8 km/h 29.8 km/h 48 % 0 mm 504.0 W/m2 CLR
15:28 -3.9 °C -10.4 °C 34554.1 hPa NE 38.8 km/h 38.8 km/h 48 % 0 mm 482.0 W/m2 CLR
15:33 -3.9 °C -10.4 °C 34554.1 hPa NE 47.6 km/h 47.6 km/h 48 % 0 mm 506.0 W/m2 CLR
15:38 -3.6 °C -10.2 °C 34554.1 hPa NE 33.6 km/h 33.6 km/h 48 % 0 mm 496.0 W/m2 CLR
15:43 -3.9 °C -10.2 °C 34554.1 hPa NNE 32.8 km/h 32.8 km/h 49 % 0 mm 446.0 W/m2 CLR
15:48 -3.9 °C -10.4 °C 34554.1 hPa NE 47.6 km/h 47.6 km/h 48 % 0 mm 436.0 W/m2 CLR
15:53 -4.2 °C -10.4 °C 34554.1 hPa ENE 44.7 km/h 44.7 km/h 50 % 0 mm 438.0 W/m2 CLR
15:58 -4.2 °C -10.2 °C 34554.1 hPa NE 38.8 km/h 38.8 km/h 51 % 0 mm 448.0 W/m2 CLR
16:03 -4.2 °C -10.4 °C 34554.1 hPa NE 38.8 km/h 38.8 km/h 50 % 0 mm 448.0 W/m2 CLR
16:08 -3.9 °C -9.9 °C 34544 hPa NE 41.7 km/h 41.7 km/h 51 % 0 mm 461.0 W/m2 CLR
16:13 -3.9 °C -9.9 °C 34544 hPa ENE 50.7 km/h 50.7 km/h 51 % 0 mm 450.0 W/m2 CLR
16:18 -3.9 °C -9.9 °C 34544 hPa NE 44.7 km/h 44.7 km/h 51 % 0 mm 439.0 W/m2 CLR
16:23 -3.9 °C -9.8 °C 34544 hPa NE 44.7 km/h 44.7 km/h 52 % 0 mm 431.0 W/m2 CLR
16:28 -4.2 °C -10.1 °C 34544 hPa NE 44.7 km/h 44.7 km/h 52 % 0 mm 420.0 W/m2 CLR
16:33 -4.2 °C -9.9 °C 34544 hPa NE 50.7 km/h 50.7 km/h 53 % 0 mm 406.0 W/m2 CLR
16:38 -4.2 °C -9.9 °C 34533.8 hPa ENE 47.6 km/h 47.6 km/h 53 % 0 mm 392.0 W/m2 CLR
16:43 -4.2 °C -10.1 °C 34533.8 hPa ENE 53.6 km/h 53.6 km/h 52 % 0 mm 381.0 W/m2 CLR
16:48 -4.2 °C -9.9 °C 34544 hPa East 41.7 km/h 41.7 km/h 53 % 0 mm 369.0 W/m2 CLR
16:53 -4.2 °C -10.1 °C 34533.8 hPa ENE 50.7 km/h 50.7 km/h 52 % 0 mm 357.0 W/m2 CLR
16:58 -4.2 °C -10.1 °C 34533.8 hPa NE 53.6 km/h 53.6 km/h 52 % 0 mm 336.0 W/m2 CLR
17:03 -4.2 °C -9.7 °C 34544 hPa NE 32.8 km/h 37.5 km/h 54 % 0 mm 272.0 W/m2 CLR
17:08 -4.5 °C -9.8 °C 34533.8 hPa East 36.2 km/h 36.2 km/h 55 % 0 mm 316.0 W/m2 CLR
17:13 -4.5 °C -10 °C 34533.8 hPa NE 47.6 km/h 47.6 km/h 54 % 0 mm 297.0 W/m2 CLR
17:18 -4.5 °C -9.8 °C 34533.8 hPa East 50.7 km/h 50.7 km/h 55 % 0 mm 276.0 W/m2 CLR
17:23 -4.5 °C -9.8 °C 34533.8 hPa NE 29.8 km/h 29.8 km/h 55 % 0 mm 176.0 W/m2 CLR
17:28 -4.8 °C -10.1 °C 34533.8 hPa ENE 41.7 km/h 41.7 km/h 55 % 0 mm 251.0 W/m2 CLR
17:33 -4.8 °C -10.1 °C 34533.8 hPa ENE 41.7 km/h 41.7 km/h 55 % 0 mm 142.0 W/m2 CLR
17:38 -5.1 °C -10.2 °C 34544 hPa ENE 29.8 km/h 29.8 km/h 56 % 0 mm 171.0 W/m2 CLR
17:43 -5.1 °C -10.2 °C 34533.8 hPa NE 32.8 km/h 32.8 km/h 56 % 0 mm 130.0 W/m2 CLR
17:48 -5.4 °C -10.6 °C 34533.8 hPa ENE 29.8 km/h 29.8 km/h 56 % 0 mm 83.0 W/m2 CLR
17:53 -5.4 °C -10.4 °C 34544 hPa ENE 29.8 km/h 29.8 km/h 57 % 0 mm 84.0 W/m2 CLR
17:58 -5.7 °C -10.7 °C 34544 hPa East 36.2 km/h 36.2 km/h 57 % 0 mm 81.0 W/m2 CLR
18:03 -5.7 °C -10.7 °C 34544 hPa ENE 29.8 km/h 29.8 km/h 57 % 0 mm 40.0 W/m2 SCT
18:08 -5.7 °C -10.5 °C 34544 hPa East 17.9 km/h 17.9 km/h 58 % 0 mm 39.0 W/m2 SCT
18:13 -6.1 °C -10.9 °C 34544 hPa East 26.9 km/h 26.9 km/h 57 % 0 mm 40.0 W/m2 BKN
18:18 -6.1 °C -10.9 °C 34544 hPa ENE 11.9 km/h 11.9 km/h 57 % 0 mm 42.0 W/m2 BKN
18:23 -6.1 °C -11.1 °C 34544 hPa East 29.8 km/h 29.8 km/h 56 % 0 mm 37.0 W/m2 BKN
18:24 -6.1 °C -11.1 °C 34544 hPa East 20.9 km/h 20.9 km/h 56 % 0 mm 32.0 W/m2 BKN
18:29 -6.1 °C -11.1 °C 34544 hPa Calm     56 % 0 mm 25.0 W/m2 BKN
18:34 -6.3 °C -11.4 °C 34544 hPa ESE 17.9 km/h 17.9 km/h 56 % 0 mm 21.0 W/m2 BKN
18:39 -6.3 °C -11.3 °C 34554.1 hPa East 26.9 km/h 26.9 km/h 57 % 0 mm 19.0 W/m2 BKN
18:45 -6.7 °C -11.6 °C 34554.1 hPa ESE 26.9 km/h 26.9 km/h 57 % 0 mm 14.0 W/m2 BKN
18:46 -6.7 °C -11.6 °C 34544 hPa East 29.8 km/h 29.8 km/h 57 % 0 mm 14.0 W/m2 BKN
18:50 -6.7 °C -11.4 °C 34544 hPa ENE 31.1 km/h 31.1 km/h 58 % 0 mm 9.0 W/m2 BKN
18:56 -6.7 °C -11.4 °C 34544 hPa ESE 35.7 km/h 35.7 km/h 58 % 0 mm 5.0 W/m2 OVC
19:01 -6.7 °C -11.4 °C 34544 hPa East 20.9 km/h 20.9 km/h 58 % 0 mm 0.0 W/m2 OVC
19:06 -6.7 °C -11.3 °C 34554.1 hPa East 23.8 km/h 23.8 km/h 59 % 0 mm 0.0 W/m2 OVC
19:11 -7 °C -11.6 °C 34554.1 hPa ESE 15 km/h 15 km/h 59 % 0 mm 0.0 W/m2 OVC
19:16 -7 °C -11.6 °C 34554.1 hPa ENE 9 km/h 9 km/h 59 % 0 mm 0.0 W/m2 OVC
19:21 -7 °C -11.6 °C 34554.1 hPa East 17.9 km/h 17.9 km/h 59 % 0 mm 0.0 W/m2 OVC
19:27 -7 °C -11.4 °C 34554.1 hPa ENE 18.2 km/h 18.2 km/h 60 % 0 mm 0.0 W/m2 CLR
19:31 -7 °C -11.2 °C 34554.1 hPa ENE 23.8 km/h 23.8 km/h 62 % 0 mm 0.0 W/m2 CLR
19:36 -7 °C -11 °C 34554.1 hPa ENE 28.5 km/h 28.5 km/h 63 % 0 mm 0.0 W/m2 CLR
19:41 -7 °C -10.7 °C 34544 hPa East 28.5 km/h 28.5 km/h 65 % 0 mm 0.0 W/m2 CLR
19:46 -7 °C -10.6 °C 34544 hPa East 32.8 km/h 32.8 km/h 66 % 0 mm 0.0 W/m2 CLR
19:51 -7 °C -10.4 °C 34544 hPa East 32.8 km/h 32.8 km/h 67 % 0 mm 0.0 W/m2 CLR
19:56 -7 °C -10.4 °C 34544 hPa ENE 38.8 km/h 38.8 km/h 67 % 0 mm 0.0 W/m2 CLR
20:01 -7 °C -10.4 °C 34544 hPa East 20.8 km/h 20.8 km/h 67 % 0 mm 0.0 W/m2 CLR
20:07 -7 °C -10.4 °C 34544 hPa East 29.8 km/h 29.8 km/h 67 % 0 mm 0.0 W/m2 CLR
20:12 -7 °C -10.4 °C 34544 hPa ENE 29.8 km/h 29.8 km/h 67 % 0 mm 0.0 W/m2 CLR
20:17 -7 °C -10.4 °C 34544 hPa East 26.9 km/h 26.9 km/h 67 % 0 mm 0.0 W/m2 CLR
20:22 -7 °C -10.3 °C 34544 hPa ENE 17.9 km/h 17.9 km/h 68 % 0 mm 0.0 W/m2 CLR
20:27 -7 °C -10.3 °C 34544 hPa ENE 20.9 km/h 20.9 km/h 68 % 0 mm 0.0 W/m2 CLR
20:32 -7.3 °C -10.7 °C 34533.8 hPa East 23.8 km/h 23.8 km/h 68 % 0 mm 0.0 W/m2 CLR
20:37 -7.3 °C -10.5 °C 34533.8 hPa Calm     69 % 0 mm 0.0 W/m2 CLR
20:42 -7.3 °C -10.5 °C 34533.8 hPa ENE 6 km/h   69 % 0 mm 0.0 W/m2 CLR
20:43 -7.3 °C -10.5 °C 34533.8 hPa NE 9 km/h 9 km/h 69 % 0 mm 0.0 W/m2 CLR
20:48 -7.6 °C -10.8 °C 34533.8 hPa ENE 9 km/h 9 km/h 69 % 0 mm 0.0 W/m2 CLR
20:53 -7.6 °C -10.8 °C 34533.8 hPa East 9 km/h 9 km/h 69 % 0 mm 0.0 W/m2 CLR
20:54 -7.6 °C -10.8 °C 34533.8 hPa East 9 km/h 9 km/h 69 % 0 mm 0.0 W/m2 CLR
20:59 -7.9 °C -11 °C 34533.8 hPa Calm     70 % 0 mm 0.0 W/m2 CLR
21:04 -7.9 °C -11 °C 34533.8 hPa ENE 15.6 km/h 15.6 km/h 70 % 0 mm 0.0 W/m2 CLR
21:09 -8.2 °C -11.3 °C 34533.8 hPa NE 15 km/h 15 km/h 70 % 0 mm 0.0 W/m2 CLR
21:14 -8.2 °C -11.2 °C 34533.8 hPa East 15 km/h 15 km/h 71 % 0 mm 0.0 W/m2 CLR
21:19 -8.2 °C -11.2 °C 34533.8 hPa East 23.3 km/h 23.3 km/h 71 % 0 mm 0.0 W/m2 CLR
21:24 -8.2 °C -11.2 °C 34533.8 hPa East 20.9 km/h 20.9 km/h 71 % 0 mm 0.0 W/m2 CLR
21:29 -8.2 °C -11.1 °C 34533.8 hPa ENE 25.9 km/h 25.9 km/h 72 % 0 mm 0.0 W/m2 CLR
21:34 -7.9 °C -10.7 °C 34533.8 hPa East 20.9 km/h 20.9 km/h 72 % 0 mm 0.0 W/m2 CLR
21:39 -7.9 °C -10.7 °C 34533.8 hPa ENE 17.9 km/h 17.9 km/h 72 % 0 mm 0.0 W/m2 CLR
21:45 -7.9 °C -10.7 °C 34533.8 hPa Calm   2.3 km/h 72 % 0 mm 0.0 W/m2 CLR
21:49 -7.9 °C -10.6 °C 34533.8 hPa East 11.9 km/h 11.9 km/h 73 % 0 mm 0.0 W/m2 CLR
21:55 -7.9 °C -10.6 °C 34533.8 hPa Calm     73 % 0 mm 0.0 W/m2 CLR
22:00 -7.9 °C -10.6 °C 34533.8 hPa Calm     73 % 0 mm 0.0 W/m2 CLR
22:05 -7.9 °C -10.6 °C 34533.8 hPa Calm     73 % 0 mm 0.0 W/m2 CLR
22:10 -7.9 °C -10.6 °C 34533.8 hPa ENE 20.9 km/h 20.9 km/h 73 % 0 mm 0.0 W/m2 CLR
22:15 -8.2 °C -10.9 °C 34544 hPa ENE 12.9 km/h 12.9 km/h 73 % 0 mm 0.0 W/m2 CLR
22:20 -8.2 °C -10.9 °C 34544 hPa Calm     73 % 0 mm 0.0 W/m2 CLR
22:25 -8.2 °C -10.9 °C 34544 hPa ENE 9 km/h   73 % 0 mm 0.0 W/m2 CLR
22:30 -8.2 °C -10.9 °C 34544 hPa Calm     73 % 0 mm 0.0 W/m2 CLR
22:35 -8.2 °C -10.8 °C 34544 hPa Calm     74 % 0 mm 0.0 W/m2 CLR
22:40 -8.2 °C -10.9 °C 34544 hPa Calm     73 % 0 mm 0.0 W/m2 CLR
22:45 -8.2 °C -10.8 °C 34544 hPa Calm     74 % 0 mm 0.0 W/m2 CLR
22:50 -8.2 °C -10.8 °C 34554.1 hPa Calm     74 % 0 mm 0.0 W/m2 CLR
22:55 -8.2 °C -10.8 °C 34554.1 hPa East 15 km/h 15 km/h 74 % 0 mm 0.0 W/m2 CLR
23:00 -8.2 °C -10.8 °C 34567.7 hPa ESE 9 km/h 9 km/h 74 % 0 mm 0.0 W/m2 CLR
23:05 -7.9 °C -10.4 °C 34577.8 hPa SSE 11.9 km/h 11.9 km/h 75 % 12.7 mm 0.0 W/m2 RA
23:10 -8.2 °C -10.6 °C 34591.4 hPa Calm     76 % 12.7 mm 0.0 W/m2
23:15 -8.2 °C -10.4 °C 34577.8 hPa Calm     77 % 12.7 mm 0.0 W/m2 CLR
23:20 -8.2 °C -10.4 °C 34577.8 hPa Calm     77 % 12.7 mm 0.0 W/m2 CLR
23:25 -8.5 °C -10.7 °C 34577.8 hPa Calm     78 % 12.7 mm 0.0 W/m2 CLR
23:30 -8.5 °C -10.4 °C 34567.7 hPa Calm     80 % 12.7 mm 0.0 W/m2 CLR
23:35 -8.5 °C -10.7 °C 34567.7 hPa Calm     78 % 12.7 mm 0.0 W/m2 CLR
23:40 -8.8 °C -10.7 °C 34577.8 hPa Calm     80 % 12.7 mm 0.0 W/m2 CLR
23:45 -8.8 °C -10.9 °C 34577.8 hPa Calm     79 % 12.7 mm 0.0 W/m2 CLR
23:46 -8.8 °C -10.9 °C 34567.7 hPa Calm     78 % 12.7 mm 0.0 W/m2 CLR
23:51 -8.8 °C -10.9 °C 34567.7 hPa Calm     78 % 12.7 mm 0.0 W/m2 CLR
23:56 -8.8 °C -10.9 °C 34567.7 hPa Calm     78 % 12.7 mm 0.0 W/m2 CLR
Lo Temps de Massalio
Compliments of Weather Underground - 1.25 mb